createdAt,value
2022-12-28T00:02:13.250Z,6.00
2022-12-28T00:05:15.023Z,5.10
2022-12-28T00:08:16.639Z,3.50
2022-12-28T00:11:25.551Z,3.57
2022-12-28T00:14:30.206Z,5.00
2022-12-28T00:17:31.997Z,3.30
2022-12-28T00:20:33.759Z,3.43
2022-12-28T00:23:35.457Z,3.60
2022-12-28T00:26:37.125Z,5.73
2022-12-28T00:29:38.817Z,5.93
2022-12-28T00:32:40.522Z,6.63
2022-12-28T00:35:42.164Z,5.53
2022-12-28T00:38:44.048Z,5.60
2022-12-28T00:41:45.910Z,5.57
2022-12-28T00:44:47.614Z,6.57
2022-12-28T00:47:51.035Z,6.60
2022-12-28T00:50:52.758Z,6.43
2022-12-28T00:53:54.723Z,7.17
2022-12-28T00:56:56.293Z,4.53
2022-12-28T00:59:57.881Z,4.20
2022-12-28T01:02:59.585Z,4.20
2022-12-28T01:06:04.694Z,4.77
2022-12-28T01:09:06.320Z,4.20
2022-12-28T01:12:07.997Z,3.93
2022-12-28T01:15:10.561Z,4.77
2022-12-28T01:18:12.642Z,5.80
2022-12-28T01:21:16.165Z,4.57
2022-12-28T01:24:17.994Z,4.40
2022-12-28T01:27:19.881Z,4.53
2022-12-28T01:30:21.549Z,4.97
2022-12-28T01:33:23.094Z,4.90
2022-12-28T01:36:25.725Z,4.60
2022-12-28T01:39:27.455Z,4.57
2022-12-28T01:42:29.862Z,6.90
2022-12-28T01:45:31.688Z,5.40
2022-12-28T01:48:35.631Z,4.63
2022-12-28T01:51:44.057Z,5.33
2022-12-28T01:54:48.490Z,5.50
2022-12-28T01:57:59.012Z,5.60
2022-12-28T02:01:00.890Z,5.83
2022-12-28T02:04:02.939Z,6.30
2022-12-28T02:07:04.678Z,5.53
2022-12-28T02:10:42.537Z,5.37
2022-12-28T02:13:28.212Z,5.23
2022-12-28T02:16:32.253Z,5.87
2022-12-28T02:19:40.557Z,5.30
2022-12-28T02:22:52.110Z,5.70
2022-12-28T02:26:15.344Z,5.13
2022-12-28T02:29:19.917Z,5.30
2022-12-28T02:32:40.636Z,6.70
2022-12-28T02:35:52.109Z,5.60
2022-12-28T02:38:55.750Z,5.50
2022-12-28T02:41:57.510Z,5.57
2022-12-28T02:45:17.730Z,5.47
2022-12-28T02:48:37.931Z,5.50
2022-12-28T02:52:03.771Z,6.60
2022-12-28T02:55:33.336Z,5.63
2022-12-28T02:58:35.119Z,5.20
2022-12-28T03:01:40.402Z,7.50
2022-12-28T03:04:55.599Z,6.73
2022-12-28T03:08:20.040Z,6.53
2022-12-28T03:11:26.361Z,7.00
2022-12-28T03:14:53.315Z,7.03
2022-12-28T03:18:34.841Z,6.50
2022-12-28T03:21:55.956Z,7.47
2022-12-28T03:25:18.031Z,7.50
2022-12-28T03:28:40.100Z,8.63
2022-12-28T03:31:42.093Z,7.90
2022-12-28T03:34:47.039Z,7.80
2022-12-28T03:38:00.172Z,7.97
2022-12-28T03:41:14.112Z,7.73
2022-12-28T03:44:26.816Z,7.73
2022-12-28T03:47:29.430Z,8.30
2022-12-28T03:50:32.116Z,8.23
2022-12-28T03:53:52.404Z,9.43
2022-12-28T03:56:56.638Z,9.63
2022-12-28T04:00:04.279Z,10.73
2022-12-28T04:03:17.319Z,10.73
2022-12-28T04:06:20.513Z,10.87
2022-12-28T04:09:22.520Z,8.70
2022-12-28T04:12:24.904Z,9.33
2022-12-28T04:16:02.017Z,9.53
2022-12-28T04:19:04.982Z,8.50
2022-12-28T04:22:06.801Z,9.93
2022-12-28T04:25:09.986Z,10.27
2022-12-28T04:28:11.642Z,11.43
2022-12-28T04:31:45.802Z,10.63
2022-12-28T04:34:51.697Z,10.67
2022-12-28T04:37:53.731Z,10.57
2022-12-28T04:40:55.327Z,9.83
2022-12-28T04:43:57.287Z,9.80
2022-12-28T04:46:58.905Z,8.87
2022-12-28T04:50:00.683Z,9.20
2022-12-28T04:53:02.300Z,20.37
2022-12-28T04:56:04.812Z,19.53
2022-12-28T04:59:06.469Z,12.80
2022-12-28T05:02:08.183Z,16.57
2022-12-28T05:05:09.903Z,17.80
2022-12-28T05:08:11.477Z,18.97
2022-12-28T05:11:14.319Z,19.80
2022-12-28T05:14:15.954Z,18.97
2022-12-28T05:17:17.689Z,20.00
2022-12-28T05:20:20.658Z,20.57
2022-12-28T05:23:22.345Z,22.70
2022-12-28T05:26:25.663Z,19.50
2022-12-28T05:29:27.215Z,20.97
2022-12-28T05:32:28.807Z,21.20
2022-12-28T05:35:30.434Z,18.20
2022-12-28T05:38:32.809Z,15.80
2022-12-28T05:41:34.475Z,18.70
2022-12-28T05:44:36.141Z,20.27
2022-12-28T05:47:37.902Z,22.47
2022-12-28T05:50:39.791Z,23.07
2022-12-28T05:53:41.940Z,24.87
2022-12-28T05:56:43.803Z,19.90
2022-12-28T05:59:45.351Z,19.07
2022-12-28T06:02:47.622Z,17.83
2022-12-28T06:05:50.564Z,18.33
2022-12-28T06:08:52.361Z,23.60
2022-12-28T06:11:54.009Z,31.53
2022-12-28T06:14:55.585Z,51.90
2022-12-28T06:17:57.148Z,32.73
2022-12-28T06:21:05.657Z,27.83
2022-12-28T06:24:07.731Z,37.13
2022-12-28T06:27:10.841Z,24.53
2022-12-28T06:30:12.942Z,23.10
2022-12-28T06:33:14.707Z,23.37
2022-12-28T06:36:20.247Z,24.07
2022-12-28T06:39:22.134Z,27.67
2022-12-28T06:42:23.737Z,27.83
2022-12-28T06:45:25.369Z,27.40
2022-12-28T06:48:27.043Z,29.60
2022-12-28T06:51:29.885Z,28.50
2022-12-28T06:54:31.588Z,28.53
2022-12-28T06:57:33.201Z,27.83
2022-12-28T07:00:34.769Z,29.20
2022-12-28T07:03:36.426Z,30.60
2022-12-28T07:06:40.189Z,29.33
2022-12-28T07:09:41.914Z,29.27
2022-12-28T07:12:43.443Z,25.90
2022-12-28T07:15:45.037Z,30.73
2022-12-28T07:18:46.942Z,32.03
2022-12-28T07:21:49.664Z,36.07
2022-12-28T07:24:51.496Z,33.37
2022-12-28T07:27:53.293Z,33.77
2022-12-28T07:30:54.984Z,69.00
2022-12-28T07:33:57.447Z,73.53
2022-12-28T07:36:59.129Z,39.90
2022-12-28T07:40:00.826Z,35.50
2022-12-28T07:43:02.487Z,35.80
2022-12-28T07:46:05.040Z,37.30
2022-12-28T07:49:07.035Z,36.77
2022-12-28T07:52:09.287Z,38.90
2022-12-28T07:55:11.015Z,24.93
2022-12-28T07:58:12.718Z,35.20
2022-12-28T08:01:15.118Z,47.53
2022-12-28T08:04:19.006Z,27.93
2022-12-28T08:07:20.685Z,26.60
2022-12-28T08:10:22.311Z,12.87
2022-12-28T08:13:23.911Z,12.07
2022-12-28T08:16:26.991Z,10.10
2022-12-28T08:19:28.710Z,10.67
2022-12-28T08:22:30.295Z,9.87
2022-12-28T08:25:31.857Z,8.53
2022-12-28T08:28:33.919Z,10.53
2022-12-28T08:31:37.657Z,14.93
2022-12-28T08:34:39.264Z,11.03
2022-12-28T08:37:40.945Z,8.70
2022-12-28T08:40:42.551Z,6.17
2022-12-28T08:43:44.299Z,17.47
2022-12-28T08:46:45.986Z,6.40
2022-12-28T08:49:48.747Z,5.87
2022-12-28T08:52:50.499Z,5.33
2022-12-28T08:55:52.121Z,5.83
2022-12-28T08:58:54.197Z,3.73
2022-12-28T09:01:55.850Z,5.50
2022-12-28T09:04:57.512Z,5.47
2022-12-28T09:07:59.849Z,7.20
2022-12-28T09:11:02.948Z,4.87
2022-12-28T09:14:05.399Z,4.73
2022-12-28T09:17:06.997Z,7.20
2022-12-28T09:20:08.832Z,5.67
2022-12-28T09:23:10.469Z,6.10
2022-12-28T09:26:16.193Z,6.90
2022-12-28T09:29:17.773Z,10.47
2022-12-28T09:32:21.160Z,5.90
2022-12-28T09:35:22.825Z,6.20
2022-12-28T09:38:24.423Z,5.37
2022-12-28T09:41:28.696Z,10.27
2022-12-28T09:44:45.769Z,8.90
2022-12-28T09:47:50.773Z,5.70
2022-12-28T09:50:53.142Z,5.70
2022-12-28T09:53:54.747Z,6.90
2022-12-28T09:56:56.659Z,10.20
2022-12-28T09:59:58.243Z,5.73
2022-12-28T10:03:04.190Z,8.97
2022-12-28T10:06:12.128Z,11.00
2022-12-28T10:09:19.679Z,9.47
2022-12-28T10:12:22.140Z,7.13
2022-12-28T10:15:24.880Z,7.10
2022-12-28T10:18:27.220Z,9.03
2022-12-28T10:21:33.112Z,14.03
2022-12-28T10:24:35.304Z,8.67
2022-12-28T10:27:36.903Z,7.70
2022-12-28T10:30:46.152Z,16.23
2022-12-28T10:33:53.764Z,7.87
2022-12-28T10:36:55.848Z,6.17
2022-12-28T10:39:59.392Z,10.57
2022-12-28T10:43:04.143Z,11.20
2022-12-28T10:46:17.947Z,17.03
2022-12-28T10:49:22.147Z,26.23
2022-12-28T10:52:23.800Z,17.63
2022-12-28T10:55:33.495Z,24.20
2022-12-28T10:58:35.289Z,11.87
2022-12-28T11:01:37.432Z,7.80
2022-12-28T11:04:51.810Z,5.37
2022-12-28T11:08:05.934Z,10.67
2022-12-28T11:11:12.375Z,7.83
2022-12-28T11:14:36.470Z,8.13
2022-12-28T11:17:38.081Z,7.90
2022-12-28T11:20:41.833Z,5.07
2022-12-28T11:23:43.889Z,6.20
2022-12-28T11:26:50.184Z,5.30
2022-12-28T11:29:52.956Z,6.10
2022-12-28T11:33:02.053Z,5.10
2022-12-28T11:36:09.705Z,4.30
2022-12-28T11:39:27.073Z,5.20
2022-12-28T11:42:41.790Z,3.70
2022-12-28T11:45:54.394Z,8.20
2022-12-28T11:49:00.070Z,6.93
2022-12-28T11:52:16.804Z,3.90
2022-12-28T11:55:30.469Z,4.63
2022-12-28T11:58:35.667Z,3.73
2022-12-28T12:01:40.956Z,4.30
2022-12-28T12:04:43.608Z,4.67
2022-12-28T12:07:46.893Z,4.57
2022-12-28T12:10:49.328Z,20.73
2022-12-28T12:13:51.564Z,8.47
2022-12-28T12:17:03.726Z,5.40
2022-12-28T12:20:07.629Z,9.10
2022-12-28T12:23:12.084Z,7.07
2022-12-28T12:26:16.680Z,4.50
2022-12-28T12:29:18.325Z,6.73
2022-12-28T12:32:24.156Z,5.27
2022-12-28T12:35:26.589Z,3.17
2022-12-28T12:38:46.684Z,4.73
2022-12-28T12:42:00.124Z,4.43
2022-12-28T12:45:15.515Z,2.87
2022-12-28T12:48:35.316Z,2.00
2022-12-28T12:51:36.827Z,3.30
2022-12-28T12:54:44.329Z,4.50
2022-12-28T12:58:02.288Z,3.80
2022-12-28T13:01:22.693Z,3.37
2022-12-28T13:04:26.366Z,6.07
2022-12-28T13:07:28.262Z,11.30
2022-12-28T13:10:32.309Z,8.33
2022-12-28T13:13:35.809Z,13.53
2022-12-28T13:16:37.489Z,7.47
2022-12-28T13:19:39.069Z,6.70
2022-12-28T13:22:45.308Z,6.97
2022-12-28T13:25:49.205Z,13.73
2022-12-28T13:28:58.546Z,10.87
2022-12-28T13:32:00.134Z,8.93
2022-12-28T13:35:02.006Z,9.90
2022-12-28T13:38:11.198Z,9.23
2022-12-28T13:41:18.271Z,9.27
2022-12-28T13:44:26.144Z,10.57
2022-12-28T13:47:33.388Z,8.17
2022-12-28T13:50:38.568Z,7.47
2022-12-28T13:53:43.684Z,13.97
2022-12-28T13:56:45.532Z,9.37
2022-12-28T13:59:47.795Z,7.77
2022-12-28T14:02:50.444Z,14.90
2022-12-28T14:06:00.186Z,16.70
2022-12-28T14:09:05.670Z,13.50
2022-12-28T14:12:08.122Z,14.17
2022-12-28T14:15:10.183Z,15.33
2022-12-28T14:18:15.204Z,14.33
2022-12-28T14:21:16.871Z,9.93
2022-12-28T14:24:18.454Z,9.27
2022-12-28T14:27:20.070Z,8.27
2022-12-28T14:30:27.420Z,16.73
2022-12-28T14:33:30.091Z,14.57
2022-12-28T14:36:41.947Z,13.10
2022-12-28T14:39:44.593Z,13.10
2022-12-28T14:42:48.948Z,12.97
2022-12-28T14:46:07.252Z,12.90
2022-12-28T14:49:28.367Z,15.77
2022-12-28T14:52:35.542Z,15.03
2022-12-28T14:55:41.780Z,23.27
2022-12-28T14:58:59.551Z,21.60
2022-12-28T15:02:01.341Z,22.10
2022-12-28T15:05:03.491Z,24.40
2022-12-28T15:08:05.854Z,23.43
2022-12-28T15:11:09.715Z,25.77
2022-12-28T15:14:11.481Z,29.10
2022-12-28T15:17:13.123Z,21.37
2022-12-28T15:20:15.401Z,29.97
2022-12-28T15:23:17.266Z,32.50
2022-12-28T15:26:19.517Z,30.80
2022-12-28T15:29:39.583Z,32.27
2022-12-28T15:32:42.918Z,35.03
2022-12-28T15:35:44.550Z,31.37
2022-12-28T15:38:46.924Z,28.17
2022-12-28T15:41:48.713Z,28.97
2022-12-28T15:44:53.032Z,26.40
2022-12-28T15:47:55.082Z,27.63
2022-12-28T15:50:56.677Z,26.57
2022-12-28T15:53:58.369Z,22.30
2022-12-28T15:56:59.936Z,23.60
2022-12-28T16:00:01.712Z,15.80
2022-12-28T16:03:06.478Z,21.80
2022-12-28T16:06:08.261Z,22.50
2022-12-28T16:09:10.478Z,25.33
2022-12-28T16:12:17.293Z,30.50
2022-12-28T16:15:19.136Z,29.43
2022-12-28T16:18:20.690Z,26.53
2022-12-28T16:21:22.294Z,29.07
2022-12-28T16:24:23.992Z,34.50
2022-12-28T16:27:25.626Z,34.43
2022-12-28T16:30:27.221Z,29.77
2022-12-28T16:33:28.949Z,41.67
2022-12-28T16:36:31.048Z,66.97
2022-12-28T16:39:32.777Z,45.83
2022-12-28T16:42:34.338Z,55.00
2022-12-28T16:45:36.967Z,65.53
2022-12-28T16:48:38.928Z,78.97
2022-12-28T16:51:41.666Z,47.47
2022-12-28T16:54:43.277Z,48.27
2022-12-28T16:57:44.929Z,59.13
2022-12-28T17:00:46.732Z,59.90
2022-12-28T17:03:48.389Z,47.43
2022-12-28T17:06:50.908Z,39.27
2022-12-28T17:09:52.563Z,34.73
2022-12-28T17:12:54.818Z,37.77
2022-12-28T17:15:59.718Z,36.33
2022-12-28T17:19:01.484Z,36.80
2022-12-28T17:22:04.213Z,40.60
2022-12-28T17:25:07.213Z,43.60
2022-12-28T17:28:09.631Z,49.90
2022-12-28T17:31:15.835Z,56.70
2022-12-28T17:34:19.495Z,54.00
2022-12-28T17:37:21.199Z,52.40
2022-12-28T17:40:22.900Z,60.07
2022-12-28T17:43:24.483Z,55.10
2022-12-28T17:46:27.161Z,222.23
2022-12-28T17:49:28.869Z,162.37
2022-12-28T17:52:30.606Z,55.10
2022-12-28T17:55:34.833Z,60.07
2022-12-28T17:58:36.604Z,95.00
2022-12-28T18:01:38.229Z,73.90
2022-12-28T18:04:40.350Z,56.43
2022-12-28T18:07:42.166Z,55.57
2022-12-28T18:10:44.138Z,58.43
2022-12-28T18:13:46.463Z,46.03
2022-12-28T18:16:48.371Z,47.10
2022-12-28T18:19:53.304Z,52.43
2022-12-28T18:22:58.615Z,51.60
2022-12-28T18:26:11.861Z,53.20
2022-12-28T18:29:13.537Z,45.63
2022-12-28T18:32:16.008Z,39.13
2022-12-28T18:35:18.697Z,35.23
2022-12-28T18:38:20.505Z,34.13
2022-12-28T18:41:22.428Z,43.57
2022-12-28T18:44:24.284Z,41.63
2022-12-28T18:47:26.005Z,40.53
2022-12-28T18:50:29.077Z,30.30
2022-12-28T18:53:31.036Z,40.93
2022-12-28T18:56:32.815Z,35.33
2022-12-28T18:59:34.467Z,35.70
2022-12-28T19:02:36.509Z,45.47
2022-12-28T19:05:38.368Z,52.10
2022-12-28T19:08:40.356Z,44.37
2022-12-28T19:11:42.181Z,37.37
2022-12-28T19:14:44.015Z,36.93
2022-12-28T19:17:45.718Z,37.00
2022-12-28T19:20:47.341Z,29.97
2022-12-28T19:23:52.818Z,26.57
2022-12-28T19:26:54.499Z,35.97
2022-12-28T19:29:56.149Z,32.93
2022-12-28T19:32:57.837Z,31.47
2022-12-28T19:35:59.516Z,31.40
2022-12-28T19:39:01.193Z,29.03
2022-12-28T19:42:02.960Z,32.83
2022-12-28T19:45:09.570Z,31.40
2022-12-28T19:48:11.788Z,31.23
2022-12-28T19:51:14.395Z,30.47
2022-12-28T19:54:16.055Z,29.47
2022-12-28T19:57:17.849Z,31.07
2022-12-28T20:00:19.633Z,30.00
2022-12-28T20:03:21.756Z,31.13
2022-12-28T20:06:27.787Z,35.03
2022-12-28T20:09:29.395Z,30.37
2022-12-28T20:12:31.074Z,30.43
2022-12-28T20:15:32.715Z,32.63
2022-12-28T20:18:34.387Z,33.43
2022-12-28T20:21:36.726Z,34.77
2022-12-28T20:24:38.402Z,31.10
2022-12-28T20:27:40.040Z,31.37
2022-12-28T20:30:41.775Z,30.13
2022-12-28T20:33:43.774Z,31.90
2022-12-28T20:36:45.447Z,34.40
2022-12-28T20:39:47.113Z,37.07
2022-12-28T20:43:07.439Z,36.10
2022-12-28T20:46:12.267Z,33.80
2022-12-28T20:49:14.040Z,38.37
2022-12-28T20:52:15.775Z,36.73
2022-12-28T20:55:17.301Z,38.60
2022-12-28T20:58:19.774Z,39.13
2022-12-28T21:01:21.569Z,44.37
2022-12-28T21:04:24.523Z,45.17
2022-12-28T21:07:26.516Z,47.23
2022-12-28T21:10:28.115Z,46.37
2022-12-28T21:13:29.771Z,43.53
2022-12-28T21:16:31.463Z,46.67
2022-12-28T21:19:33.168Z,53.30
2022-12-28T21:22:34.765Z,45.07
2022-12-28T21:25:36.580Z,52.03
2022-12-28T21:28:38.317Z,57.83
2022-12-28T21:31:40.054Z,60.70
2022-12-28T21:34:41.719Z,69.20
2022-12-28T21:37:43.295Z,61.10
2022-12-28T21:40:44.965Z,53.07
2022-12-28T21:43:46.535Z,60.87
2022-12-28T21:46:49.144Z,50.90
2022-12-28T21:49:50.750Z,42.67
2022-12-28T21:52:52.322Z,39.83
2022-12-28T21:55:53.957Z,41.80
2022-12-28T21:58:56.244Z,36.80
2022-12-28T22:02:16.707Z,34.67
2022-12-28T22:05:36.748Z,39.67
2022-12-28T22:08:57.077Z,36.37
2022-12-28T22:12:17.499Z,35.70
2022-12-28T22:15:38.799Z,36.93
2022-12-28T22:22:01.961Z,35.27
2022-12-28T22:25:03.645Z,36.37
2022-12-28T22:28:05.730Z,32.93
2022-12-28T22:31:07.993Z,33.97
2022-12-28T22:34:09.627Z,36.77
2022-12-28T22:37:13.829Z,39.60
2022-12-28T22:40:15.518Z,44.63
2022-12-28T22:43:17.072Z,64.47
2022-12-28T22:46:19.631Z,52.17
2022-12-28T22:49:21.369Z,46.30
2022-12-28T22:52:22.999Z,49.13
2022-12-28T22:55:24.659Z,34.07
2022-12-28T22:58:26.716Z,34.87
2022-12-28T23:01:28.359Z,35.63
2022-12-28T23:04:30.029Z,38.17
2022-12-28T23:07:31.802Z,40.60
2022-12-28T23:10:33.436Z,33.57
2022-12-28T23:13:35.092Z,34.93
2022-12-28T23:16:36.763Z,34.60
2022-12-28T23:19:57.238Z,35.87
2022-12-28T23:23:17.354Z,35.47
2022-12-28T23:26:37.764Z,32.67
2022-12-28T23:29:39.369Z,35.43
2022-12-28T23:32:40.982Z,33.70
2022-12-28T23:35:42.672Z,32.33
2022-12-28T23:38:44.338Z,31.67
2022-12-28T23:41:48.897Z,32.90
2022-12-28T23:44:50.497Z,32.60
2022-12-28T23:47:52.772Z,28.97
2022-12-28T23:51:08.117Z,28.87
2022-12-28T23:54:11.079Z,27.67
2022-12-28T23:57:12.777Z,35.00
